LFOE 301030Z AUTO 09009KT 050V120 CAVOK 23/05 Q1020

ElémentsDécodage
LFOE Station météo située sur l'aérodrome de EVREUX Fauville
301030Z émis le 30 du mois à 10h30 UTC
AUTO Bulletin édité par un automate
09009KT vent du 090°, 09 noeuds
050V120 vent de direction variable entre 050° et 120°
CAVOK Ceiling And Visibility OK
- Visibilité de 10 Km ou plus
- Pas de nuage au-dessous de 1500m ou au-dessous de l'altitude minimale du secteur la plus élevée (si>1500m) et absence de CB
- pas de temps présent significatif
23/05 température 23°C, point de rosée 05°C
 soit une humidité relative de 31%
Q1020 la pression au niveau de la mer (QNH) est de 1020 hPa